sensor_id;sensor_type;location;lat;lon;timestamp;pressure;altitude;pressure_sealevel;temperature;humidity
17615;BME280;8926;49.720;6.576;2023-09-08T00:01:32;99871.06;;;20.26;74.12
17615;BME280;8926;49.720;6.576;2023-09-08T00:03:57;99871.91;;;20.17;74.30
17615;BME280;8926;49.720;6.576;2023-09-08T00:06:23;99873.19;;;20.13;74.63
17615;BME280;8926;49.720;6.576;2023-09-08T00:08:48;99878.47;;;20.13;74.36
17615;BME280;8926;49.720;6.576;2023-09-08T00:11:13;99874.72;;;20.06;74.29
17615;BME280;8926;49.720;6.576;2023-09-08T00:13:39;99869.72;;;20.03;74.96
17615;BME280;8926;49.720;6.576;2023-09-08T00:16:05;99866.97;;;19.95;75.54
17615;BME280;8926;49.720;6.576;2023-09-08T00:18:30;99876.75;;;19.85;76.11
17615;BME280;8926;49.720;6.576;2023-09-08T00:20:55;99874.50;;;19.90;74.16
17615;BME280;8926;49.720;6.576;2023-09-08T00:23:21;99865.84;;;19.88;74.04
17615;BME280;8926;49.720;6.576;2023-09-08T00:25:46;99864.47;;;19.84;75.62
17615;BME280;8926;49.720;6.576;2023-09-08T00:28:11;99864.31;;;19.85;74.72
17615;BME280;8926;49.720;6.576;2023-09-08T00:30:37;99864.47;;;19.84;76.19
17615;BME280;8926;49.720;6.576;2023-09-08T00:33:02;99866.13;;;19.85;75.75
17615;BME280;8926;49.720;6.576;2023-09-08T00:35:27;99873.41;;;19.83;76.28
17615;BME280;8926;49.720;6.576;2023-09-08T00:37:53;99870.75;;;19.83;75.26
17615;BME280;8926;49.720;6.576;2023-09-08T00:40:18;99876.75;;;19.85;75.68
17615;BME280;8926;49.720;6.576;2023-09-08T00:42:43;99872.41;;;19.84;76.84
17615;BME280;8926;49.720;6.576;2023-09-08T00:45:09;99871.44;;;19.85;77.11
17615;BME280;8926;49.720;6.576;2023-09-08T00:47:34;99873.41;;;19.83;76.33
17615;BME280;8926;49.720;6.576;2023-09-08T00:50:02;99866.41;;;19.82;75.82
17615;BME280;8926;49.720;6.576;2023-09-08T00:52:28;99874.09;;;19.85;75.95
17615;BME280;8926;49.720;6.576;2023-09-08T00:54:57;99879.53;;;19.83;76.81
17615;BME280;8926;49.720;6.576;2023-09-08T00:57:23;99872.56;;;19.82;77.01
17615;BME280;8926;49.720;6.576;2023-09-08T00:59:48;99874.28;;;19.74;77.44
17615;BME280;8926;49.720;6.576;2023-09-08T01:02:14;99872.19;;;19.68;76.43
17615;BME280;8926;49.720;6.576;2023-09-08T01:04:39;99876.78;;;19.65;77.10
17615;BME280;8926;49.720;6.576;2023-09-08T01:07:06;99874.41;;;19.62;77.06
17615;BME280;8926;49.720;6.576;2023-09-08T01:09:33;99880.69;;;19.61;77.04
17615;BME280;8926;49.720;6.576;2023-09-08T01:11:58;99873.72;;;19.60;77.48
17615;BME280;8926;49.720;6.576;2023-09-08T01:14:27;99881.25;;;19.55;77.37
17615;BME280;8926;49.720;6.576;2023-09-08T01:16:52;99880.13;;;19.58;76.98
17615;BME280;8926;49.720;6.576;2023-09-08T01:19:18;99882.66;;;19.59;77.39
17615;BME280;8926;49.720;6.576;2023-09-08T01:22:11;99883.63;;;19.58;76.86
17615;BME280;8926;49.720;6.576;2023-09-08T01:25:45;99882.09;;;19.56;78.21
17615;BME280;8926;49.720;6.576;2023-09-08T01:28:04;99886.53;;;19.55;77.41
17615;BME280;8926;49.720;6.576;2023-09-08T01:30:30;99881.78;;;19.49;77.29
17615;BME280;8926;49.720;6.576;2023-09-08T01:32:57;99883.06;;;19.45;77.92
17615;BME280;8926;49.720;6.576;2023-09-08T01:35:23;99885.28;;;19.40;76.90
17615;BME280;8926;49.720;6.576;2023-09-08T01:37:49;99888.78;;;19.41;76.89
17615;BME280;8926;49.720;6.576;2023-09-08T01:40:15;99886.25;;;19.39;77.15
17615;BME280;8926;49.720;6.576;2023-09-08T01:42:41;99885.69;;;19.36;78.29
17615;BME280;8926;49.720;6.576;2023-09-08T01:45:07;99884.16;;;19.33;78.23
17615;BME280;8926;49.720;6.576;2023-09-08T01:47:33;99874.81;;;19.29;77.55
17615;BME280;8926;49.720;6.576;2023-09-08T01:49:59;99873.13;;;19.28;77.53
17615;BME280;8926;49.720;6.576;2023-09-08T01:52:24;99872.56;;;19.24;78.23
17615;BME280;8926;49.720;6.576;2023-09-08T01:54:50;99875.34;;;19.23;78.27
17615;BME280;8926;49.720;6.576;2023-09-08T01:57:15;99878.72;;;19.15;78.35
17615;BME280;8926;49.720;6.576;2023-09-08T01:59:41;99880.66;;;19.13;78.73
17615;BME280;8926;49.720;6.576;2023-09-08T02:02:06;99878.16;;;19.12;78.37
17615;BME280;8926;49.720;6.576;2023-09-08T02:04:32;99875.94;;;19.17;77.66
17615;BME280;8926;49.720;6.576;2023-09-08T02:06:57;99879.56;;;19.16;78.30
17615;BME280;8926;49.720;6.576;2023-09-08T02:09:39;99877.88;;;19.15;77.86
17615;BME280;8926;49.720;6.576;2023-09-08T02:12:04;99871.88;;;19.13;78.14
17615;BME280;8926;49.720;6.576;2023-09-08T02:14:30;99870.34;;;19.10;78.47
17615;BME280;8926;49.720;6.576;2023-09-08T02:16:56;99876.75;;;19.08;78.23
17615;BME280;8926;49.720;6.576;2023-09-08T02:19:21;99882.59;;;19.02;78.24
17615;BME280;8926;49.720;6.576;2023-09-08T02:21:47;99877.03;;;18.95;79.19
17615;BME280;8926;49.720;6.576;2023-09-08T02:24:13;99877.03;;;18.95;78.78
17615;BME280;8926;49.720;6.576;2023-09-08T02:26:39;99878.16;;;18.92;78.85
17615;BME280;8926;49.720;6.576;2023-09-08T02:29:04;99873.97;;;18.90;78.96
17615;BME280;8926;49.720;6.576;2023-09-08T02:31:29;99875.06;;;18.87;78.46
17615;BME280;8926;49.720;6.576;2023-09-08T02:33:55;99880.34;;;18.87;78.36
17615;BME280;8926;49.720;6.576;2023-09-08T02:36:20;99878.69;;;18.86;78.29
17615;BME280;8926;49.720;6.576;2023-09-08T02:38:51;99879.53;;;18.87;78.56
17615;BME280;8926;49.720;6.576;2023-09-08T02:41:16;99880.34;;;18.87;79.04
17615;BME280;8926;49.720;6.576;2023-09-08T02:43:42;99878.94;;;18.83;78.86
17615;BME280;8926;49.720;6.576;2023-09-08T02:46:07;99882.84;;;18.79;78.88
17615;BME280;8926;49.720;6.576;2023-09-08T02:48:34;99873.34;;;18.77;79.44
17615;BME280;8926;49.720;6.576;2023-09-08T02:50:59;99881.44;;;18.75;79.34
17615;BME280;8926;49.720;6.576;2023-09-08T02:53:25;99887.00;;;18.72;79.46
17615;BME280;8926;49.720;6.576;2023-09-08T02:55:54;99880.31;;;18.68;79.61
17615;BME280;8926;49.720;6.576;2023-09-08T02:58:19;99889.25;;;18.67;79.68
17615;BME280;8926;49.720;6.576;2023-09-08T03:00:44;99892.97;;;18.64;79.62
17615;BME280;8926;49.720;6.576;2023-09-08T03:03:10;99885.19;;;18.63;79.12
17615;BME280;8926;49.720;6.576;2023-09-08T03:05:35;99891.44;;;18.62;79.11
17615;BME280;8926;49.720;6.576;2023-09-08T03:08:02;99891.69;;;18.59;79.95
17615;BME280;8926;49.720;6.576;2023-09-08T03:10:27;99895.28;;;18.58;79.65
17615;BME280;8926;49.720;6.576;2023-09-08T03:12:53;99890.53;;;18.52;80.26
17615;BME280;8926;49.720;6.576;2023-09-08T03:15:19;99887.44;;;18.47;80.18
17615;BME280;8926;49.720;6.576;2023-09-08T03:17:44;99885.50;;;18.49;79.91
17615;BME280;8926;49.720;6.576;2023-09-08T03:20:10;99887.88;;;18.52;79.55
17615;BME280;8926;49.720;6.576;2023-09-08T03:22:35;99888.84;;;18.51;79.71
17615;BME280;8926;49.720;6.576;2023-09-08T03:25:01;99885.50;;;18.49;79.42
17615;BME280;8926;49.720;6.576;2023-09-08T03:27:26;99887.44;;;18.47;79.79
17615;BME280;8926;49.720;6.576;2023-09-08T03:29:51;99884.13;;;18.45;79.97
17615;BME280;8926;49.720;6.576;2023-09-08T03:32:17;99883.00;;;18.47;78.63
17615;BME280;8926;49.720;6.576;2023-09-08T03:34:42;99887.56;;;18.45;79.56
17615;BME280;8926;49.720;6.576;2023-09-08T03:37:07;99887.28;;;18.39;79.82
17615;BME280;8926;49.720;6.576;2023-09-08T03:39:33;99886.59;;;18.37;79.75
17615;BME280;8926;49.720;6.576;2023-09-08T03:41:58;99879.88;;;18.33;79.43
17615;BME280;8926;49.720;6.576;2023-09-08T03:44:23;99876.66;;;18.29;80.46
17615;BME280;8926;49.720;6.576;2023-09-08T03:46:48;99872.88;;;18.22;80.03
17615;BME280;8926;49.720;6.576;2023-09-08T03:49:14;99874.25;;;18.16;80.85
17615;BME280;8926;49.720;6.576;2023-09-08T03:51:39;99876.91;;;18.16;80.82
17615;BME280;8926;49.720;6.576;2023-09-08T03:54:04;99877.03;;;18.15;81.05
17615;BME280;8926;49.720;6.576;2023-09-08T03:56:31;99884.84;;;18.16;80.75
17615;BME280;8926;49.720;6.576;2023-09-08T03:58:56;99886.22;;;18.20;80.41
17615;BME280;8926;49.720;6.576;2023-09-08T04:01:21;99880.66;;;18.23;80.21
17615;BME280;8926;49.720;6.576;2023-09-08T04:03:46;99887.63;;;18.24;80.33
17615;BME280;8926;49.720;6.576;2023-09-08T04:06:12;99877.59;;;18.18;80.29
17615;BME280;8926;49.720;6.576;2023-09-08T04:08:37;99893.47;;;18.18;80.42
17615;BME280;8926;49.720;6.576;2023-09-08T04:11:02;99888.44;;;18.15;80.27
17615;BME280;8926;49.720;6.576;2023-09-08T04:13:28;99888.44;;;18.15;80.40
17615;BME280;8926;49.720;6.576;2023-09-08T04:15:53;99883.16;;;18.15;79.94
17615;BME280;8926;49.720;6.576;2023-09-08T04:18:18;99892.06;;;18.14;80.80
17615;BME280;8926;49.720;6.576;2023-09-08T04:20:43;99888.00;;;18.10;79.83
17615;BME280;8926;49.720;6.576;2023-09-08T04:23:09;99886.19;;;18.11;80.08
17615;BME280;8926;49.720;6.576;2023-09-08T04:25:34;99883.41;;;18.12;79.74
17615;BME280;8926;49.720;6.576;2023-09-08T04:28:00;99887.03;;;18.11;80.03
17615;BME280;8926;49.720;6.576;2023-09-08T04:30:25;99887.28;;;18.08;80.09
17615;BME280;8926;49.720;6.576;2023-09-08T04:32:51;99883.66;;;18.09;80.30
17615;BME280;8926;49.720;6.576;2023-09-08T04:35:16;99883.66;;;18.09;80.20
17615;BME280;8926;49.720;6.576;2023-09-08T04:37:41;99877.69;;;18.07;80.50
17615;BME280;8926;49.720;6.576;2023-09-08T04:40:07;99878.66;;;18.06;80.05
17615;BME280;8926;49.720;6.576;2023-09-08T04:42:32;99885.88;;;18.04;80.45
17615;BME280;8926;49.720;6.576;2023-09-08T04:44:58;99882.50;;;18.02;80.51
17615;BME280;8926;49.720;6.576;2023-09-08T04:47:23;99883.47;;;18.01;80.38
17615;BME280;8926;49.720;6.576;2023-09-08T04:49:51;99890.56;;;18.01;80.39
17615;BME280;8926;49.720;6.576;2023-09-08T04:52:16;99889.28;;;17.95;80.74
17615;BME280;8926;49.720;6.576;2023-09-08T04:54:41;99890.00;;;17.97;80.99
17615;BME280;8926;49.720;6.576;2023-09-08T04:57:07;99894.19;;;18.00;80.90
17615;BME280;8926;49.720;6.576;2023-09-08T04:59:32;99889.22;;;18.06;80.80
17615;BME280;8926;49.720;6.576;2023-09-08T05:01:58;99889.81;;;18.10;80.70
17615;BME280;8926;49.720;6.576;2023-09-08T05:04:23;99898.56;;;18.10;80.07
17615;BME280;8926;49.720;6.576;2023-09-08T05:06:48;99897.59;;;18.11;80.45
17615;BME280;8926;49.720;6.576;2023-09-08T05:09:14;99899.03;;;18.15;80.12
17615;BME280;8926;49.720;6.576;2023-09-08T05:11:40;99899.44;;;18.20;80.12
17615;BME280;8926;49.720;6.576;2023-09-08T05:14:05;99898.22;;;18.24;80.07
17615;BME280;8926;49.720;6.576;2023-09-08T05:16:30;99902.41;;;18.27;79.34
17615;BME280;8926;49.720;6.576;2023-09-08T05:19:04;99899.88;;;18.25;79.54
17615;BME280;8926;49.720;6.576;2023-09-08T05:21:31;99905.19;;;18.25;79.35
17615;BME280;8926;49.720;6.576;2023-09-08T05:23:57;99896.72;;;18.31;78.70
17615;BME280;8926;49.720;6.576;2023-09-08T05:26:22;99902.72;;;18.34;79.48
17615;BME280;8926;49.720;6.576;2023-09-08T05:28:47;99900.78;;;18.36;79.14
17615;BME280;8926;49.720;6.576;2023-09-08T05:31:12;99907.63;;;18.38;79.05
17615;BME280;8926;49.720;6.576;2023-09-08T05:33:38;99908.59;;;18.47;78.41
17615;BME280;8926;49.720;6.576;2023-09-08T05:36:03;99909.75;;;18.54;78.40
17615;BME280;8926;49.720;6.576;2023-09-08T05:38:28;99907.19;;;18.73;77.93
17615;BME280;8926;49.720;6.576;2023-09-08T05:40:54;99901.06;;;19.71;75.98
17615;BME280;8926;49.720;6.576;2023-09-08T05:43:19;99896.63;;;20.82;71.48
17615;BME280;8926;49.720;6.576;2023-09-08T05:45:44;99896.78;;;21.87;70.49
17615;BME280;8926;49.720;6.576;2023-09-08T05:48:10;99901.06;;;22.58;66.16
17615;BME280;8926;49.720;6.576;2023-09-08T05:50:36;99894.63;;;23.27;65.81
17615;BME280;8926;49.720;6.576;2023-09-08T05:53:01;99897.31;;;23.92;63.17
17615;BME280;8926;49.720;6.576;2023-09-08T05:55:26;99900.69;;;24.49;62.06
17615;BME280;8926;49.720;6.576;2023-09-08T05:57:52;99893.31;;;24.98;62.46
17615;BME280;8926;49.720;6.576;2023-09-08T06:00:17;99897.31;;;25.48;58.02
17615;BME280;8926;49.720;6.576;2023-09-08T06:02:43;99893.97;;;25.92;56.25
17615;BME280;8926;49.720;6.576;2023-09-08T06:05:08;99896.56;;;26.29;57.38
17615;BME280;8926;49.720;6.576;2023-09-08T06:07:33;99892.06;;;26.74;54.56
17615;BME280;8926;49.720;6.576;2023-09-08T06:09:58;99883.19;;;27.10;53.92
17615;BME280;8926;49.720;6.576;2023-09-08T06:12:24;99882.81;;;27.55;55.08
17615;BME280;8926;49.720;6.576;2023-09-08T06:14:49;99880.63;;;27.87;51.42
17615;BME280;8926;49.720;6.576;2023-09-08T06:17:14;99881.44;;;28.15;50.83
17615;BME280;8926;49.720;6.576;2023-09-08T06:19:39;99883.81;;;28.25;52.99
17615;BME280;8926;49.720;6.576;2023-09-08T06:22:05;99874.94;;;28.72;51.37
17615;BME280;8926;49.720;6.576;2023-09-08T06:24:30;99863.09;;;29.21;49.47
17615;BME280;8926;49.720;6.576;2023-09-08T06:26:55;99879.72;;;29.57;49.53
17615;BME280;8926;49.720;6.576;2023-09-08T06:29:21;99867.88;;;29.98;46.96
17615;BME280;8926;49.720;6.576;2023-09-08T06:31:46;99875.97;;;29.71;45.84
17615;BME280;8926;49.720;6.576;2023-09-08T06:34:14;99870.59;;;29.85;43.87
17615;BME280;8926;49.720;6.576;2023-09-08T06:36:40;99875.16;;;29.71;44.41
17615;BME280;8926;49.720;6.576;2023-09-08T06:39:05;99866.03;;;29.52;44.67
17615;BME280;8926;49.720;6.576;2023-09-08T06:41:30;99881.56;;;28.76;46.68
17615;BME280;8926;49.720;6.576;2023-09-08T06:43:55;99883.84;;;27.54;48.59
17615;BME280;8926;49.720;6.576;2023-09-08T06:46:21;99895.38;;;26.76;50.40
17615;BME280;8926;49.720;6.576;2023-09-08T06:48:46;99891.41;;;26.28;51.71
17615;BME280;8926;49.720;6.576;2023-09-08T06:51:11;99883.72;;;25.95;52.13
17615;BME280;8926;49.720;6.576;2023-09-08T06:53:37;99890.41;;;25.54;53.52
17615;BME280;8926;49.720;6.576;2023-09-08T06:56:02;99888.22;;;25.57;53.83
17615;BME280;8926;49.720;6.576;2023-09-08T06:58:28;99893.09;;;25.31;53.79
17615;BME280;8926;49.720;6.576;2023-09-08T07:00:53;99887.56;;;25.10;54.65
17615;BME280;8926;49.720;6.576;2023-09-08T07:03:20;99889.41;;;25.09;54.85
17615;BME280;8926;49.720;6.576;2023-09-08T07:05:46;99884.94;;;25.01;55.24
17615;BME280;8926;49.720;6.576;2023-09-08T07:08:11;99894.09;;;25.30;55.41
17615;BME280;8926;49.720;6.576;2023-09-08T07:10:37;99884.31;;;25.45;55.07
17615;BME280;8926;49.720;6.576;2023-09-08T07:13:03;99887.00;;;25.45;54.31
17615;BME280;8926;49.720;6.576;2023-09-08T07:15:28;99888.00;;;25.44;54.71
17615;BME280;8926;49.720;6.576;2023-09-08T07:17:53;99893.06;;;25.39;54.93
17615;BME280;8926;49.720;6.576;2023-09-08T07:20:19;99893.38;;;25.59;54.24
17615;BME280;8926;49.720;6.576;2023-09-08T07:22:44;99896.03;;;25.44;54.67
17615;BME280;8926;49.720;6.576;2023-09-08T07:25:09;99894.47;;;25.73;54.64
17615;BME280;8926;49.720;6.576;2023-09-08T07:27:35;99891.56;;;26.26;52.63
17615;BME280;8926;49.720;6.576;2023-09-08T07:30:00;99894.41;;;26.48;51.94
17615;BME280;8926;49.720;6.576;2023-09-08T07:32:25;99890.72;;;26.49;52.29
17615;BME280;8926;49.720;6.576;2023-09-08T07:34:51;99889.88;;;26.33;52.73
17615;BME280;8926;49.720;6.576;2023-09-08T07:37:21;99885.69;;;26.16;52.77
17615;BME280;8926;49.720;6.576;2023-09-08T07:39:47;99880.88;;;25.97;54.24
17615;BME280;8926;49.720;6.576;2023-09-08T07:42:12;99882.47;;;26.21;53.08
17615;BME280;8926;49.720;6.576;2023-09-08T07:44:38;99887.56;;;26.30;53.42
17615;BME280;8926;49.720;6.576;2023-09-08T07:47:03;99885.06;;;26.44;52.98
17615;BME280;8926;49.720;6.576;2023-09-08T07:49:28;99882.22;;;26.81;52.24
17615;BME280;8926;49.720;6.576;2023-09-08T07:51:54;99870.03;;;27.15;51.34
17615;BME280;8926;49.720;6.576;2023-09-08T07:54:19;99869.16;;;27.29;50.97
17615;BME280;8926;49.720;6.576;2023-09-08T07:56:44;99876.41;;;27.56;50.06
17615;BME280;8926;49.720;6.576;2023-09-08T07:59:09;99876.19;;;27.51;49.64
17615;BME280;8926;49.720;6.576;2023-09-08T08:01:35;99880.41;;;27.39;50.16
17615;BME280;8926;49.720;6.576;2023-09-08T08:04:00;99881.69;;;27.64;50.12
17615;BME280;8926;49.720;6.576;2023-09-08T08:06:28;99873.19;;;27.89;49.47
17615;BME280;8926;49.720;6.576;2023-09-08T08:08:53;99870.22;;;28.40;48.10
17615;BME280;8926;49.720;6.576;2023-09-08T08:11:18;99873.66;;;28.20;47.94
17615;BME280;8926;49.720;6.576;2023-09-08T08:13:45;99873.06;;;28.25;48.58
17615;BME280;8926;49.720;6.576;2023-09-08T08:16:10;99873.94;;;28.38;47.52
17615;BME280;8926;49.720;6.576;2023-09-08T08:18:36;99870.34;;;28.66;48.05
17615;BME280;8926;49.720;6.576;2023-09-08T08:21:01;99866.59;;;28.54;47.17
17615;BME280;8926;49.720;6.576;2023-09-08T08:23:28;99870.28;;;28.46;48.35
17615;BME280;8926;49.720;6.576;2023-09-08T08:25:53;99874.47;;;28.62;47.95
17615;BME280;8926;49.720;6.576;2023-09-08T08:28:19;99861.84;;;28.56;47.61
17615;BME280;8926;49.720;6.576;2023-09-08T08:30:45;99858.78;;;28.72;47.42
17615;BME280;8926;49.720;6.576;2023-09-08T08:33:12;99862.22;;;29.00;47.27
17615;BME280;8926;49.720;6.576;2023-09-08T08:35:38;99857.34;;;29.44;45.83
17615;BME280;8926;49.720;6.576;2023-09-08T08:38:04;99861.47;;;29.73;45.00
17615;BME280;8926;49.720;6.576;2023-09-08T08:40:29;99869.34;;;29.81;44.62
17615;BME280;8926;49.720;6.576;2023-09-08T08:42:58;99858.97;;;29.91;44.94
17615;BME280;8926;49.720;6.576;2023-09-08T08:45:24;99868.53;;;29.47;45.12
17615;BME280;8926;49.720;6.576;2023-09-08T08:47:52;99867.91;;;29.58;46.42
17615;BME280;8926;49.720;6.576;2023-09-08T08:50:18;99864.38;;;29.45;46.33
17615;BME280;8926;49.720;6.576;2023-09-08T08:52:44;99863.97;;;29.67;46.11
17615;BME280;8926;49.720;6.576;2023-09-08T08:55:09;99862.69;;;29.90;46.01
17615;BME280;8926;49.720;6.576;2023-09-08T08:57:37;99861.69;;;30.04;45.24
17615;BME280;8926;49.720;6.576;2023-09-08T09:00:07;99860.66;;;30.05;44.82
17615;BME280;8926;49.720;6.576;2023-09-08T09:02:39;99854.19;;;30.19;44.90
17615;BME280;8926;49.720;6.576;2023-09-08T09:05:05;99851.19;;;30.41;44.25
17615;BME280;8926;49.720;6.576;2023-09-08T09:07:31;99853.03;;;30.60;43.69
17615;BME280;8926;49.720;6.576;2023-09-08T09:09:57;99847.50;;;30.86;43.71
17615;BME280;8926;49.720;6.576;2023-09-08T09:12:22;99841.19;;;30.99;43.25
17615;BME280;8926;49.720;6.576;2023-09-08T09:14:47;99846.59;;;30.99;43.16
17615;BME280;8926;49.720;6.576;2023-09-08T09:17:16;99849.25;;;31.12;43.15
17615;BME280;8926;49.720;6.576;2023-09-08T09:19:42;99859.53;;;30.90;43.36
17615;BME280;8926;49.720;6.576;2023-09-08T09:22:07;99843.06;;;30.98;43.11
17615;BME280;8926;49.720;6.576;2023-09-08T09:24:40;99845.84;;;31.23;43.11
17615;BME280;8926;49.720;6.576;2023-09-08T09:27:09;99844.75;;;31.31;42.50
17615;BME280;8926;49.720;6.576;2023-09-08T09:29:47;99837.25;;;31.33;43.22
17615;BME280;8926;49.720;6.576;2023-09-08T09:32:13;99844.53;;;31.32;42.45
17615;BME280;8926;49.720;6.576;2023-09-08T09:34:49;99832.28;;;31.30;42.91
17615;BME280;8926;49.720;6.576;2023-09-08T09:37:15;99829.34;;;31.38;43.43
17615;BME280;8926;49.720;6.576;2023-09-08T09:39:40;99837.84;;;31.66;43.01
17615;BME280;8926;49.720;6.576;2023-09-08T09:42:06;99832.13;;;31.75;42.82
17615;BME280;8926;49.720;6.576;2023-09-08T09:44:31;99834.34;;;31.84;42.12
17615;BME280;8926;49.720;6.576;2023-09-08T09:46:56;99827.22;;;31.90;42.72
17615;BME280;8926;49.720;6.576;2023-09-08T09:49:22;99825.88;;;31.99;42.67
17615;BME280;8926;49.720;6.576;2023-09-08T09:51:53;99823.16;;;31.99;42.40
17615;BME280;8926;49.720;6.576;2023-09-08T09:54:19;99819.72;;;32.10;41.88
17615;BME280;8926;49.720;6.576;2023-09-08T09:56:45;99824.69;;;32.31;41.71
17615;BME280;8926;49.720;6.576;2023-09-08T09:59:13;99820.78;;;32.46;42.19
17615;BME280;8926;49.720;6.576;2023-09-08T10:01:42;99810.81;;;32.46;41.10
17615;BME280;8926;49.720;6.576;2023-09-08T10:04:08;99817.19;;;32.33;41.13
17615;BME280;8926;49.720;6.576;2023-09-08T10:06:35;99813.16;;;32.54;41.58
17615;BME280;8926;49.720;6.576;2023-09-08T10:09:03;99806.44;;;32.93;41.29
17615;BME280;8926;49.720;6.576;2023-09-08T10:11:40;99807.03;;;33.07;40.94
17615;BME280;8926;49.720;6.576;2023-09-08T10:14:07;99807.50;;;33.04;40.35
17615;BME280;8926;49.720;6.576;2023-09-08T10:16:38;99807.66;;;33.21;40.00
17615;BME280;8926;49.720;6.576;2023-09-08T10:19:08;99811.38;;;32.96;40.36
17615;BME280;8926;49.720;6.576;2023-09-08T10:21:36;99807.19;;;32.82;40.08
17615;BME280;8926;49.720;6.576;2023-09-08T10:24:14;99811.66;;;32.77;40.43
17615;BME280;8926;49.720;6.576;2023-09-08T10:26:43;99807.97;;;32.71;40.73
17615;BME280;8926;49.720;6.576;2023-09-08T10:29:10;99804.38;;;32.59;41.12
17615;BME280;8926;49.720;6.576;2023-09-08T10:31:36;99802.41;;;32.66;40.94
17615;BME280;8926;49.720;6.576;2023-09-08T10:34:02;99804.34;;;32.77;41.13
17615;BME280;8926;49.720;6.576;2023-09-08T10:36:28;99802.06;;;32.92;40.97
17615;BME280;8926;49.720;6.576;2023-09-08T10:38:54;99807.66;;;33.21;40.90
17615;BME280;8926;49.720;6.576;2023-09-08T10:43:55;99801.66;;;32.77;41.36
17615;BME280;8926;49.720;6.576;2023-09-08T10:46:23;99799.53;;;32.79;40.88
17615;BME280;8926;49.720;6.576;2023-09-08T10:48:48;99792.00;;;32.81;41.00
17615;BME280;8926;49.720;6.576;2023-09-08T10:51:14;99798.16;;;32.88;41.36
17615;BME280;8926;49.720;6.576;2023-09-08T10:53:40;99790.63;;;32.90;41.46
17615;BME280;8926;49.720;6.576;2023-09-08T10:56:05;99790.19;;;32.93;41.53
17615;BME280;8926;49.720;6.576;2023-09-08T10:58:35;99791.38;;;32.97;41.90
17615;BME280;8926;49.720;6.576;2023-09-08T11:01:04;99784.91;;;33.10;41.52
17615;BME280;8926;49.720;6.576;2023-09-08T11:06:08;99789.81;;;33.43;41.78
17615;BME280;8926;49.720;6.576;2023-09-08T11:08:40;99790.41;;;33.57;41.05
17615;BME280;8926;49.720;6.576;2023-09-08T11:11:06;99787.25;;;33.48;41.80
17615;BME280;8926;49.720;6.576;2023-09-08T11:13:32;99782.88;;;33.47;41.82
17615;BME280;8926;49.720;6.576;2023-09-08T11:15:58;99783.69;;;33.59;40.83
17615;BME280;8926;49.720;6.576;2023-09-08T11:18:30;99778.25;;;33.59;41.22
17615;BME280;8926;49.720;6.576;2023-09-08T11:20:56;99783.94;;;33.46;41.10
17615;BME280;8926;49.720;6.576;2023-09-08T11:23:22;99782.28;;;33.45;41.22
17615;BME280;8926;49.720;6.576;2023-09-08T11:25:49;99771.91;;;33.42;41.54
17615;BME280;8926;49.720;6.576;2023-09-08T11:28:16;99784.16;;;33.33;42.11
17615;BME280;8926;49.720;6.576;2023-09-08T11:30:41;99777.66;;;33.34;42.38
17615;BME280;8926;49.720;6.576;2023-09-08T11:33:20;99777.78;;;33.62;41.79
17615;BME280;8926;49.720;6.576;2023-09-08T11:35:53;99785.34;;;33.60;41.75
17615;BME280;8926;49.720;6.576;2023-09-08T11:38:24;99778.25;;;33.59;42.24
17615;BME280;8926;49.720;6.576;2023-09-08T11:40:50;99775.78;;;33.69;42.17
17615;BME280;8926;49.720;6.576;2023-09-08T11:43:16;99771.09;;;33.77;41.90
17615;BME280;8926;49.720;6.576;2023-09-08T11:45:42;99774.03;;;33.87;42.96
17615;BME280;8926;49.720;6.576;2023-09-08T11:48:08;99765.06;;;33.98;41.86
17615;BME280;8926;49.720;6.576;2023-09-08T11:50:33;99768.84;;;33.97;42.13
17615;BME280;8926;49.720;6.576;2023-09-08T11:52:58;99764.13;;;34.04;42.18
17615;BME280;8926;49.720;6.576;2023-09-08T11:55:25;99771.53;;;33.97;41.90
17615;BME280;8926;49.720;6.576;2023-09-08T11:57:52;99773.69;;;33.71;42.03
17615;BME280;8926;49.720;6.576;2023-09-08T12:00:26;99767.91;;;33.56;42.91
17615;BME280;8926;49.720;6.576;2023-09-08T12:02:52;99769.19;;;33.65;42.31
17615;BME280;8926;49.720;6.576;2023-09-08T12:05:22;99764.84;;;33.64;42.51
17615;BME280;8926;49.720;6.576;2023-09-08T12:07:50;99765.19;;;33.68;42.78
17615;BME280;8926;49.720;6.576;2023-09-08T12:10:15;99771.78;;;33.72;42.51
17615;BME280;8926;49.720;6.576;2023-09-08T12:12:53;99774.38;;;33.67;42.46
17615;BME280;8926;49.720;6.576;2023-09-08T12:18:02;99766.00;;;33.68;42.68
17615;BME280;8926;49.720;6.576;2023-09-08T12:20:28;99764.47;;;33.72;42.44
17615;BME280;8926;49.720;6.576;2023-09-08T12:22:54;99767.19;;;33.72;42.48
17615;BME280;8926;49.720;6.576;2023-09-08T12:25:19;99762.94;;;33.77;43.52
17615;BME280;8926;49.720;6.576;2023-09-08T12:27:45;99760.84;;;33.79;42.93
17615;BME280;8926;49.720;6.576;2023-09-08T12:30:18;99763.53;;;33.79;42.47
17615;BME280;8926;49.720;6.576;2023-09-08T12:32:46;99760.59;;;33.68;42.49
17615;BME280;8926;49.720;6.576;2023-09-08T12:35:13;99759.88;;;33.61;42.64
17615;BME280;8926;49.720;6.576;2023-09-08T12:37:38;99751.88;;;33.43;43.20
17615;BME280;8926;49.720;6.576;2023-09-08T12:40:04;99758.91;;;33.21;42.52
17615;BME280;8926;49.720;6.576;2023-09-08T12:42:29;99752.28;;;33.05;43.03
17615;BME280;8926;49.720;6.576;2023-09-08T12:44:55;99756.66;;;33.06;43.45
17615;BME280;8926;49.720;6.576;2023-09-08T12:47:21;99744.53;;;33.09;43.03
17615;BME280;8926;49.720;6.576;2023-09-08T12:49:46;99745.59;;;33.08;42.61
17615;BME280;8926;49.720;6.576;2023-09-08T12:52:12;99740.53;;;32.99;43.83
17615;BME280;8926;49.720;6.576;2023-09-08T12:54:37;99738.38;;;33.01;43.34
17615;BME280;8926;49.720;6.576;2023-09-08T12:57:02;99735.41;;;32.80;43.13
17615;BME280;8926;49.720;6.576;2023-09-08T12:59:28;99738.81;;;32.75;44.20
17615;BME280;8926;49.720;6.576;2023-09-08T13:01:53;99735.38;;;32.68;43.26
17615;BME280;8926;49.720;6.576;2023-09-08T13:04:19;99733.13;;;32.65;42.87
17615;BME280;8926;49.720;6.576;2023-09-08T13:06:44;99731.03;;;32.49;43.53
17615;BME280;8926;49.720;6.576;2023-09-08T13:09:10;99726.22;;;32.51;43.83
17615;BME280;8926;49.720;6.576;2023-09-08T13:11:35;99728.25;;;32.55;44.03
17615;BME280;8926;49.720;6.576;2023-09-08T13:14:01;99727.44;;;32.55;43.90